Time;durP1;ratioP1;P1;durP2;ratioP2;P2;SDS_P1;SDS_P2;PMS_P1;PMS_P2;Temp;Humidity;BMP_temperature;BMP_pressure;BME280_temperature;BME280_humidity;BME280_pressure;Samples;Min_cycle;Max_cycle;Signal;HPM_P1;HPM_P2
2023/08/26 00:00:29;;;;;;;37.80;23.27;;;17.00;99.90;;;;;;5036757;28;20440;-66
2023/08/26 00:02:55;;;;;;;37.78;23.08;;;17.00;99.90;;;;;;5031321;28;20056;-66
2023/08/26 00:05:20;;;;;;;33.70;22.75;;;17.00;99.90;;;;;;5035567;28;20087;-66
2023/08/26 00:07:46;;;;;;;37.92;23.08;;;17.00;99.90;;;;;;5017498;28;20551;-67
2023/08/26 00:10:12;;;;;;;36.08;22.27;;;16.90;99.90;;;;;;5032000;28;20037;-66
2023/08/26 00:12:37;;;;;;;33.22;22.77;;;16.90;99.90;;;;;;5033444;28;20051;-67
2023/08/26 00:15:04;;;;;;;36.20;22.15;;;16.90;99.90;;;;;;5033586;28;20370;-67
2023/08/26 00:17:29;;;;;;;31.55;21.15;;;16.90;99.90;;;;;;5015931;28;20396;-67
2023/08/26 00:19:55;;;;;;;33.05;21.73;;;16.90;99.90;;;;;;5031501;28;20537;-65
2023/08/26 00:22:20;;;;;;;33.78;20.25;;;16.80;99.90;;;;;;5031770;28;20056;-66
2023/08/26 00:24:47;;;;;;;34.83;21.60;;;16.80;99.90;;;;;;5034343;28;20048;-66
2023/08/26 00:27:13;;;;;;;30.88;20.50;;;16.80;99.90;;;;;;5033068;28;20468;-67
2023/08/26 00:29:40;;;;;;;31.02;20.90;;;16.80;99.90;;;;;;5015823;28;20047;-66
2023/08/26 00:32:06;;;;;;;34.05;20.15;;;16.70;99.90;;;;;;5029852;28;20500;-66
2023/08/26 00:34:31;;;;;;;28.45;18.75;;;16.70;99.90;;;;;;5034575;28;20049;-65
2023/08/26 00:36:57;;;;;;;34.13;20.98;;;16.60;99.90;;;;;;5032732;28;20052;-65
2023/08/26 00:39:22;;;;;;;28.80;18.85;;;16.60;99.90;;;;;;5034043;28;20044;-65
2023/08/26 00:41:48;;;;;;;32.03;19.70;;;16.60;99.90;;;;;;5029748;28;20063;-64
2023/08/26 00:44:14;;;;;;;31.05;18.70;;;16.50;99.90;;;;;;5015909;28;20330;-63
2023/08/26 00:46:39;;;;;;;29.38;19.00;;;16.50;99.90;;;;;;5033557;28;20045;-64
2023/08/26 00:49:06;;;;;;;28.98;18.73;;;16.50;99.90;;;;;;5032780;28;20061;-63
2023/08/26 00:51:32;;;;;;;30.30;16.88;;;16.40;99.90;;;;;;5029671;28;20059;-66
2023/08/26 00:53:58;;;;;;;27.88;17.60;;;16.40;99.90;;;;;;5034143;28;20049;-65
2023/08/26 00:56:23;;;;;;;28.67;16.67;;;16.40;99.90;;;;;;5032369;28;20055;-64
2023/08/26 00:58:49;;;;;;;24.38;15.45;;;16.30;99.90;;;;;;5032589;28;20071;-65
2023/08/26 01:01:15;;;;;;;23.52;15.70;;;16.30;99.90;;;;;;5028886;28;20408;-64
2023/08/26 01:03:41;;;;;;;27.10;16.55;;;16.30;99.90;;;;;;5031779;28;20057;-63
2023/08/26 01:06:06;;;;;;;25.35;15.88;;;16.20;99.90;;;;;;5033621;28;20132;-67
2023/08/26 01:08:32;;;;;;;25.17;14.75;;;16.20;99.90;;;;;;5045011;28;20143;-64
2023/08/26 01:11:01;;;;;;;21.75;15.20;;;16.20;99.90;;;;;;5053957;28;20571;-65
2023/08/26 01:13:38;;;;;;;20.48;13.90;;;16.20;99.90;;;;;;5054809;28;20044;-63
2023/08/26 01:16:05;;;;;;;20.58;14.65;;;16.20;99.90;;;;;;5053488;28;20059;-63
2023/08/26 01:18:30;;;;;;;20.35;13.45;;;16.10;99.90;;;;;;5068995;28;20034;-62
2023/08/26 01:20:57;;;;;;;22.58;13.48;;;16.10;99.90;;;;;;5055609;28;20048;-65
2023/08/26 01:23:44;;;;;;;20.08;13.05;;;16.10;99.90;;;;;;5054484;28;20029;-69
2023/08/26 01:26:10;;;;;;;21.92;14.13;;;16.00;99.90;;;;;;5043861;28;20076;-62
2023/08/26 01:28:36;;;;;;;18.70;12.55;;;16.00;99.90;;;;;;5052857;28;20036;-65
2023/08/26 01:31:07;;;;;;;22.45;13.32;;;16.00;99.90;;;;;;5065707;28;20111;-63
2023/08/26 01:34:05;;;;;;;18.63;10.70;;;16.00;99.90;;;;;;5048409;28;20604;-64
2023/08/26 01:36:34;;;;;;;23.00;10.68;;;16.00;99.90;;;;;;5043876;28;20099;-66
2023/08/26 01:39:01;;;;;;;18.42;11.32;;;15.90;99.90;;;;;;5054885;28;20055;-62
2023/08/26 01:41:27;;;;;;;15.90;11.35;;;15.90;99.90;;;;;;5065595;28;20040;-64
2023/08/26 01:43:55;;;;;;;18.67;11.15;;;15.90;99.90;;;;;;5064427;28;20433;-62
2023/08/26 01:46:36;;;;;;;18.27;11.10;;;15.90;99.90;;;;;;5047146;28;20070;-62
2023/08/26 01:49:03;;;;;;;20.42;11.05;;;15.90;99.90;;;;;;5047871;28;20079;-63
2023/08/26 01:51:29;;;;;;;17.80;10.32;;;15.90;99.90;;;;;;5063998;28;20094;-65
2023/08/26 01:53:54;;;;;;;19.08;10.77;;;15.90;99.90;;;;;;5047314;28;20126;-65
2023/08/26 01:56:20;;;;;;;18.08;10.05;;;15.90;99.90;;;;;;5063911;28;20044;-63
2023/08/26 01:58:45;;;;;;;16.10;9.35;;;15.80;99.90;;;;;;5065519;28;20510;-64
2023/08/26 02:01:11;;;;;;;18.23;9.27;;;15.80;99.90;;;;;;5065485;28;20040;-63
2023/08/26 02:03:36;;;;;;;14.00;9.85;;;15.80;99.90;;;;;;5046213;28;20113;-65
2023/08/26 02:06:02;;;;;;;13.75;9.43;;;15.80;99.90;;;;;;5044067;28;20076;-65
2023/08/26 02:08:28;;;;;;;15.52;9.10;;;15.80;99.90;;;;;;5044064;28;20403;-64
2023/08/26 02:10:57;;;;;;;15.18;9.77;;;15.70;99.90;;;;;;5045285;28;20041;-63
2023/08/26 02:13:25;;;;;;;15.95;8.95;;;15.70;99.90;;;;;;5056968;28;20036;-64
2023/08/26 02:15:51;;;;;;;14.38;8.75;;;15.70;99.90;;;;;;5062371;28;20047;-64
2023/08/26 02:18:18;;;;;;;15.98;8.70;;;15.70;99.90;;;;;;5045043;28;20040;-63
2023/08/26 02:20:44;;;;;;;15.35;8.77;;;15.60;99.90;;;;;;5043898;28;20558;-65
2023/08/26 02:23:10;;;;;;;15.45;9.32;;;15.60;99.90;;;;;;5043952;28;20049;-65
2023/08/26 02:25:36;;;;;;;14.50;7.72;;;15.50;99.90;;;;;;5043452;28;20125;-65
2023/08/26 02:28:02;;;;;;;15.60;8.65;;;15.50;99.90;;;;;;5038752;28;20419;-64
2023/08/26 02:30:29;;;;;;;16.35;8.13;;;15.50;99.90;;;;;;5057395;28;20053;-65
2023/08/26 02:32:54;;;;;;;16.15;8.23;;;15.40;99.90;;;;;;5042509;28;20040;-67
2023/08/26 02:35:20;;;;;;;14.95;8.27;;;15.40;99.90;;;;;;5048350;28;20044;-67
2023/08/26 02:37:46;;;;;;;14.45;9.18;;;15.40;99.90;;;;;;5043640;28;20603;-66
2023/08/26 02:40:11;;;;;;;14.75;9.80;;;15.30;99.90;;;;;;5061036;28;20059;-66
2023/08/26 02:42:37;;;;;;;16.92;9.93;;;15.30;99.90;;;;;;5066782;28;20412;-66
2023/08/26 02:45:04;;;;;;;15.50;8.77;;;15.30;99.90;;;;;;5067709;28;20408;-65
2023/08/26 02:47:30;;;;;;;12.48;8.35;;;15.30;99.90;;;;;;5065143;28;20044;-67
2023/08/26 02:49:55;;;;;;;15.05;9.00;;;15.20;99.90;;;;;;5067480;28;20515;-63
2023/08/26 02:52:21;;;;;;;18.05;9.50;;;15.20;99.90;;;;;;5101719;28;20174;-64
2023/08/26 02:54:47;;;;;;;15.20;9.15;;;15.20;99.90;;;;;;5066300;28;20083;-63
2023/08/26 02:57:12;;;;;;;16.38;8.38;;;15.20;99.90;;;;;;5047950;28;20730;-63
2023/08/26 02:59:38;;;;;;;18.20;9.32;;;15.10;99.90;;;;;;5047416;28;20044;-65
2023/08/26 03:02:06;;;;;;;18.00;9.13;;;15.10;99.90;;;;;;5048420;28;20607;-65
2023/08/26 03:04:32;;;;;;;15.30;8.18;;;15.10;99.90;;;;;;5059196;28;20053;-63
2023/08/26 03:06:58;;;;;;;14.27;8.82;;;15.00;99.90;;;;;;5047099;28;20415;-65
2023/08/26 03:09:24;;;;;;;14.70;8.52;;;15.00;99.90;;;;;;5048668;28;20037;-66
2023/08/26 03:11:50;;;;;;;15.63;8.57;;;15.00;99.90;;;;;;5048616;28;20052;-64
2023/08/26 03:14:15;;;;;;;16.25;9.20;;;15.00;99.90;;;;;;5050523;28;20097;-63
2023/08/26 03:16:41;;;;;;;12.65;9.07;;;15.00;99.90;;;;;;5067258;28;20487;-65
2023/08/26 03:19:06;;;;;;;15.85;8.63;;;14.90;99.90;;;;;;5065374;28;20093;-65
2023/08/26 03:21:32;;;;;;;15.98;9.00;;;14.90;99.90;;;;;;5066674;28;20044;-64
2023/08/26 03:23:58;;;;;;;17.23;8.38;;;14.90;99.90;;;;;;5058880;28;20037;-63
2023/08/26 03:26:24;;;;;;;16.25;9.43;;;14.80;99.90;;;;;;5046784;28;20299;-64
2023/08/26 03:28:49;;;;;;;16.80;9.20;;;14.70;99.90;;;;;;5035176;28;20408;-65
2023/08/26 03:31:15;;;;;;;14.88;9.65;;;14.70;99.90;;;;;;5027131;28;20112;-64
2023/08/26 03:33:41;;;;;;;16.77;9.80;;;14.60;99.90;;;;;;5043105;28;20047;-66
2023/08/26 03:36:07;;;;;;;17.02;9.55;;;14.60;99.90;;;;;;5066443;28;20147;-67
2023/08/26 03:38:36;;;;;;;20.08;10.32;;;14.50;99.90;;;;;;5090043;28;20045;-66
2023/08/26 03:41:05;;;;;;;14.90;9.98;;;14.50;99.90;;;;;;5046421;28;20102;-66
2023/08/26 03:43:31;;;;;;;18.65;9.63;;;14.50;99.90;;;;;;5031807;28;20121;-66
2023/08/26 03:45:57;;;;;;;19.23;10.73;;;14.40;99.90;;;;;;5066446;28;20036;-67
2023/08/26 03:48:23;;;;;;;22.15;11.73;;;14.40;99.90;;;;;;5048003;28;20365;-66
2023/08/26 03:50:53;;;;;;;19.13;11.48;;;14.40;99.90;;;;;;5052248;28;20048;-67
2023/08/26 03:53:18;;;;;;;17.88;10.43;;;14.30;99.90;;;;;;5065604;28;20068;-66
2023/08/26 03:55:45;;;;;;;16.02;9.82;;;14.30;99.90;;;;;;5051048;28;20052;-66
2023/08/26 03:58:11;;;;;;;14.95;9.35;;;14.30;99.90;;;;;;5046156;28;20049;-67
2023/08/26 04:00:37;;;;;;;14.60;9.75;;;14.20;99.90;;;;;;5047631;28;20063;-66
2023/08/26 04:03:04;;;;;;;16.77;9.48;;;14.20;99.90;;;;;;5057001;28;20491;-66
2023/08/26 04:05:31;;;;;;;20.60;10.68;;;14.20;99.90;;;;;;5048662;28;20626;-66
2023/08/26 04:07:57;;;;;;;13.52;8.43;;;14.10;99.90;;;;;;5046516;28;20052;-67
2023/08/26 04:10:22;;;;;;;17.65;10.38;;;14.10;99.90;;;;;;5050725;28;20052;-66
2023/08/26 04:12:48;;;;;;;14.65;9.40;;;14.10;99.90;;;;;;5067567;28;20040;-67
2023/08/26 04:15:14;;;;;;;17.55;10.45;;;14.10;99.90;;;;;;5065909;28;20053;-67
2023/08/26 04:17:41;;;;;;;16.15;10.20;;;14.10;99.90;;;;;;5064600;28;20519;-66
2023/08/26 04:20:07;;;;;;;19.98;10.75;;;14.10;99.90;;;;;;5051557;28;20074;-67
2023/08/26 04:22:33;;;;;;;15.45;9.73;;;14.00;99.90;;;;;;5045697;28;20041;-66
2023/08/26 04:24:59;;;;;;;17.63;10.15;;;14.00;99.90;;;;;;5045851;28;20382;-66
2023/08/26 04:27:24;;;;;;;14.73;9.60;;;14.00;99.90;;;;;;5059956;28;20063;-65
2023/08/26 04:29:50;;;;;;;17.08;9.90;;;14.00;99.90;;;;;;5026068;28;20041;-65
2023/08/26 04:32:17;;;;;;;13.20;9.05;;;14.00;99.90;;;;;;5032454;28;20036;-66
2023/08/26 04:34:43;;;;;;;13.35;8.95;;;14.00;99.90;;;;;;5065740;28;20051;-67
2023/08/26 04:37:09;;;;;;;14.32;9.13;;;14.00;99.90;;;;;;5049012;28;20037;-66
2023/08/26 04:39:34;;;;;;;15.98;9.52;;;13.90;99.90;;;;;;5054314;28;20043;-66
2023/08/26 04:42:01;;;;;;;16.58;9.88;;;13.90;99.90;;;;;;5045597;28;20373;-66
2023/08/26 04:44:26;;;;;;;15.38;9.75;;;13.90;99.90;;;;;;5045611;28;20049;-66
2023/08/26 04:46:53;;;;;;;14.98;10.18;;;13.90;99.90;;;;;;5046278;28;20040;-66
2023/08/26 04:49:19;;;;;;;17.85;9.45;;;13.90;99.90;;;;;;5059457;28;20337;-66
2023/08/26 04:51:51;;;;;;;18.63;10.00;;;13.90;99.90;;;;;;5028880;28;20501;-66
2023/08/26 04:54:17;;;;;;;10.27;7.00;;;13.90;99.90;;;;;;5028408;28;20299;-67
2023/08/26 04:56:42;;;;;;;11.98;7.20;;;13.90;99.90;;;;;;5060828;28;20123;-67
2023/08/26 04:59:08;;;;;;;14.95;8.35;;;13.90;99.90;;;;;;5066626;28;20124;-68
2023/08/26 05:01:34;;;;;;;11.77;6.90;;;14.00;99.90;;;;;;5062810;28;20036;-67
2023/08/26 05:04:00;;;;;;;12.57;8.10;;;14.10;99.90;;;;;;5059144;28;20048;-67
2023/08/26 05:06:25;;;;;;;19.52;9.18;;;14.20;99.90;;;;;;5045788;28;20124;-67
2023/08/26 05:08:51;;;;;;;14.95;9.18;;;14.30;99.90;;;;;;5045148;28;20409;-65
2023/08/26 05:11:16;;;;;;;15.45;8.85;;;14.40;99.90;;;;;;5084250;28;20131;-66
2023/08/26 05:13:42;;;;;;;15.73;8.82;;;14.50;99.90;;;;;;5065024;28;20330;-66
2023/08/26 05:16:07;;;;;;;14.23;8.45;;;14.60;99.90;;;;;;5041916;28;20041;-66
2023/08/26 05:18:33;;;;;;;13.70;8.02;;;14.70;99.90;;;;;;5058478;28;20099;-68
2023/08/26 05:21:00;;;;;;;15.88;8.32;;;14.80;99.90;;;;;;5045803;28;20700;-67
2023/08/26 05:23:25;;;;;;;13.90;8.07;;;14.80;99.90;;;;;;5044774;28;20029;-65
2023/08/26 05:25:51;;;;;;;13.93;7.82;;;14.70;99.90;;;;;;5052139;28;20428;-65
2023/08/26 05:28:17;;;;;;;12.82;7.88;;;14.80;99.90;;;;;;5047544;28;20287;-66
2023/08/26 05:30:42;;;;;;;12.98;8.25;;;14.80;99.90;;;;;;5008640;28;20132;-67
2023/08/26 05:33:08;;;;;;;13.98;8.55;;;14.80;99.90;;;;;;5035905;28;20307;-68
2023/08/26 05:35:34;;;;;;;14.68;7.90;;;14.80;99.90;;;;;;5061619;28;20344;-66
2023/08/26 05:38:00;;;;;;;14.30;8.00;;;14.80;99.90;;;;;;5047948;28;20059;-67
2023/08/26 05:40:29;;;;;;;13.65;8.57;;;14.90;99.90;;;;;;5055294;28;20032;-67
2023/08/26 05:42:58;;;;;;;15.07;8.38;;;14.90;99.90;;;;;;5027650;28;20048;-66
2023/08/26 05:45:25;;;;;;;15.18;6.65;;;15.00;99.90;;;;;;5044068;28;20099;-67
2023/08/26 05:47:51;;;;;;;14.07;6.95;;;15.00;99.90;;;;;;5044637;28;20115;-63
2023/08/26 05:50:17;;;;;;;12.85;6.40;;;15.00;99.90;;;;;;5044068;28;20033;-63
2023/08/26 05:52:44;;;;;;;13.95;7.00;;;14.90;99.90;;;;;;5044617;28;20040;-66
2023/08/26 05:55:10;;;;;;;11.65;6.35;;;14.90;99.90;;;;;;5044996;28;20049;-65
2023/08/26 05:57:40;;;;;;;11.98;6.13;;;14.90;99.90;;;;;;5045406;28;20041;-67
2023/08/26 06:00:07;;;;;;;11.48;5.95;;;14.90;99.90;;;;;;5058654;28;20480;-67
2023/08/26 06:02:34;;;;;;;9.05;5.90;;;14.90;99.90;;;;;;5045080;28;20083;-66
2023/08/26 06:04:59;;;;;;;10.85;6.47;;;14.90;99.90;;;;;;5051306;28;20037;-66
2023/08/26 06:07:25;;;;;;;13.55;6.80;;;14.90;99.90;;;;;;5045585;28;20134;-66
2023/08/26 06:09:51;;;;;;;15.18;7.53;;;14.90;99.90;;;;;;5043788;28;20128;-66
2023/08/26 06:12:17;;;;;;;14.20;7.95;;;14.90;99.90;;;;;;5043937;28;20409;-65
2023/08/26 06:14:42;;;;;;;17.77;8.43;;;14.90;99.90;;;;;;5045523;28;20052;-62
2023/08/26 06:17:08;;;;;;;21.20;8.63;;;14.90;99.90;;;;;;5045489;28;20589;-66
2023/08/26 06:19:34;;;;;;;14.50;8.00;;;14.90;99.90;;;;;;5054628;28;20451;-66
2023/08/26 06:22:00;;;;;;;19.35;9.05;;;14.90;99.90;;;;;;5045229;28;20053;-67
2023/08/26 06:24:26;;;;;;;17.45;8.68;;;14.90;99.90;;;;;;5053643;28;20512;-65
2023/08/26 06:26:52;;;;;;;13.75;8.15;;;14.90;99.90;;;;;;5063762;28;20552;-64
2023/08/26 06:29:20;;;;;;;11.43;7.47;;;14.90;99.90;;;;;;5031661;28;20037;-64
2023/08/26 06:31:45;;;;;;;12.05;7.32;;;14.90;99.90;;;;;;5043307;28;20046;-66
2023/08/26 06:34:11;;;;;;;12.25;8.02;;;14.90;99.90;;;;;;5061858;28;20050;-65
2023/08/26 06:36:38;;;;;;;12.30;7.80;;;14.90;99.90;;;;;;5063428;28;20559;-67
2023/08/26 06:39:03;;;;;;;16.88;8.38;;;15.00;99.90;;;;;;5063977;28;20139;-65
2023/08/26 06:41:32;;;;;;;13.02;7.55;;;15.00;99.90;;;;;;5060997;28;20142;-68
2023/08/26 06:43:58;;;;;;;13.38;7.40;;;15.00;99.90;;;;;;5045219;28;20079;-67
2023/08/26 06:46:24;;;;;;;14.35;7.78;;;15.00;99.90;;;;;;5042934;28;20458;-64
2023/08/26 06:48:50;;;;;;;14.50;8.00;;;15.00;99.90;;;;;;5044922;28;20400;-65
2023/08/26 06:51:16;;;;;;;13.70;7.40;;;15.00;99.90;;;;;;5063728;28;20036;-64
2023/08/26 06:53:41;;;;;;;14.00;7.22;;;15.00;99.90;;;;;;5064915;28;20048;-66
2023/08/26 06:56:07;;;;;;;15.07;7.50;;;15.00;99.90;;;;;;5063503;28;20062;-66
2023/08/26 06:58:33;;;;;;;12.80;8.23;;;15.00;99.90;;;;;;5062702;28;20417;-64
2023/08/26 07:00:58;;;;;;;16.70;8.18;;;15.00;99.90;;;;;;5043471;28;20524;-64
2023/08/26 07:03:27;;;;;;;13.63;7.03;;;15.00;99.90;;;;;;5054438;28;20554;-66
2023/08/26 07:05:52;;;;;;;12.48;7.63;;;15.00;99.90;;;;;;5063400;28;20098;-63
2023/08/26 07:08:18;;;;;;;16.33;7.28;;;15.00;99.90;;;;;;5030619;28;20076;-65
2023/08/26 07:10:44;;;;;;;16.38;7.57;;;15.00;99.90;;;;;;5043440;28;20045;-64
2023/08/26 07:13:10;;;;;;;15.20;7.85;;;15.10;99.90;;;;;;5052663;28;20522;-64
2023/08/26 07:15:37;;;;;;;18.15;9.85;;;15.10;99.90;;;;;;5062315;28;20053;-64
2023/08/26 07:18:03;;;;;;;15.35;9.85;;;15.10;99.90;;;;;;5052560;28;20084;-66
2023/08/26 07:20:29;;;;;;;17.50;10.65;;;15.20;99.90;;;;;;5029975;28;20676;-63
2023/08/26 07:22:55;;;;;;;18.98;11.68;;;15.20;99.90;;;;;;5043116;28;20072;-67
2023/08/26 07:25:21;;;;;;;19.85;12.48;;;15.30;99.90;;;;;;5048492;28;20032;-65
2023/08/26 07:27:47;;;;;;;19.42;11.75;;;15.40;99.90;;;;;;5057534;28;20373;-65
2023/08/26 07:30:13;;;;;;;25.88;14.02;;;15.50;99.90;;;;;;5028562;28;20038;-64
2023/08/26 07:32:40;;;;;;;19.25;14.50;;;15.60;99.90;;;;;;5029325;28;20045;-66
2023/08/26 07:35:07;;;;;;;29.08;16.33;;;15.60;99.90;;;;;;5058015;28;20044;-66
2023/08/26 07:37:33;;;;;;;23.92;16.52;;;15.70;99.90;;;;;;5066440;28;20527;-67
2023/08/26 07:40:01;;;;;;;26.73;17.08;;;15.70;99.90;;;;;;5066668;28;20049;-63
2023/08/26 07:42:27;;;;;;;30.02;18.77;;;15.70;99.90;;;;;;5058361;28;20128;-63
2023/08/26 07:44:52;;;;;;;30.73;20.65;;;15.80;99.90;;;;;;5046575;28;20147;-62
2023/08/26 07:47:20;;;;;;;30.92;21.27;;;15.90;99.90;;;;;;5049817;28;20039;-65
2023/08/26 07:49:45;;;;;;;35.55;24.33;;;16.00;99.90;;;;;;5054063;28;20029;-62
2023/08/26 07:52:11;;;;;;;33.95;21.77;;;16.00;99.90;;;;;;5046913;28;20063;-63
2023/08/26 07:54:37;;;;;;;35.22;21.45;;;16.10;99.90;;;;;;5045949;28;20037;-62
2023/08/26 07:57:03;;;;;;;32.50;21.27;;;16.10;99.90;;;;;;5043067;28;20053;-64
2023/08/26 07:59:28;;;;;;;33.35;22.02;;;16.10;99.90;;;;;;5047078;28;20115;-63
2023/08/26 08:01:54;;;;;;;29.48;20.30;;;16.30;99.90;;;;;;5045303;28;20057;-66
2023/08/26 08:04:19;;;;;;;29.80;20.35;;;16.40;99.90;;;;;;5083622;28;20048;-65
2023/08/26 08:06:45;;;;;;;28.45;20.05;;;16.60;99.90;;;;;;5066246;28;20036;-63
2023/08/26 08:09:11;;;;;;;28.05;20.20;;;16.80;99.90;;;;;;5055474;28;20116;-66
2023/08/26 08:11:36;;;;;;;29.73;21.05;;;17.00;99.90;;;;;;5046183;28;20049;-67
2023/08/26 08:14:02;;;;;;;28.83;20.25;;;17.10;99.90;;;;;;5042847;28;20086;-67
2023/08/26 08:16:28;;;;;;;36.45;20.83;;;17.10;99.90;;;;;;5059558;28;20333;-63
2023/08/26 08:18:53;;;;;;;27.75;20.02;;;17.10;99.90;;;;;;5047152;28;20047;-66
2023/08/26 08:21:19;;;;;;;29.98;20.27;;;17.10;99.90;;;;;;5048153;28;20488;-64
2023/08/26 08:23:45;;;;;;;29.42;21.02;;;17.10;99.90;;;;;;5045743;28;20455;-65
2023/08/26 08:26:11;;;;;;;26.10;19.88;;;17.20;99.90;;;;;;5033488;28;20072;-63
2023/08/26 08:28:38;;;;;;;26.08;20.35;;;17.20;99.90;;;;;;5019228;28;20337;-67
2023/08/26 08:31:04;;;;;;;28.33;20.98;;;17.20;99.90;;;;;;5045236;28;20049;-66
2023/08/26 08:33:29;;;;;;;23.38;19.55;;;17.30;99.90;;;;;;5056115;28;20091;-66
2023/08/26 08:35:55;;;;;;;26.17;20.30;;;17.40;99.90;;;;;;5042062;28;20047;-68
2023/08/26 08:38:21;;;;;;;24.25;18.15;;;17.50;99.90;;;;;;5027381;28;20116;-63
2023/08/26 08:40:47;;;;;;;26.85;18.67;;;17.60;99.90;;;;;;5047260;28;20044;-68
2023/08/26 08:43:15;;;;;;;27.52;18.33;;;17.60;99.90;;;;;;5065389;28;20090;-64
2023/08/26 08:45:42;;;;;;;23.77;16.35;;;17.70;99.90;;;;;;5061650;28;20040;-65
2023/08/26 08:48:09;;;;;;;24.20;17.25;;;17.80;99.90;;;;;;5053727;28;20424;-66
2023/08/26 08:50:35;;;;;;;22.75;16.05;;;17.90;99.90;;;;;;5053031;28;20548;-66
2023/08/26 08:53:02;;;;;;;23.35;15.68;;;17.90;99.90;;;;;;5054292;28;20068;-66
2023/08/26 08:55:29;;;;;;;22.50;16.10;;;18.00;99.90;;;;;;5046940;28;20446;-66
2023/08/26 08:57:56;;;;;;;18.02;13.63;;;18.00;99.90;;;;;;5044185;28;20436;-65
2023/08/26 09:00:23;;;;;;;19.58;13.75;;;18.00;99.90;;;;;;5044074;28;20368;-65
2023/08/26 09:02:51;;;;;;;18.33;13.23;;;17.90;99.90;;;;;;5050716;28;20048;-64
2023/08/26 09:05:17;;;;;;;17.25;12.77;;;17.90;99.90;;;;;;5064662;28;20510;-66
2023/08/26 09:07:43;;;;;;;17.65;11.65;;;17.90;99.90;;;;;;5064974;28;20037;-66
2023/08/26 09:10:11;;;;;;;17.10;11.77;;;17.90;99.90;;;;;;5064709;28;20040;-63
2023/08/26 09:12:36;;;;;;;21.58;11.45;;;18.00;99.90;;;;;;5046175;28;20387;-67
2023/08/26 09:15:03;;;;;;;18.00;13.23;;;18.00;99.90;;;;;;5046271;28;20037;-64
2023/08/26 09:17:29;;;;;;;16.90;11.25;;;17.90;99.90;;;;;;5047817;28;20037;-64
2023/08/26 09:20:00;;;;;;;19.08;11.90;;;18.00;99.90;;;;;;5054166;28;20086;-65
2023/08/26 09:22:27;;;;;;;18.50;12.15;;;18.00;99.90;;;;;;5047945;28;20617;-63
2023/08/26 09:25:00;;;;;;;19.98;13.27;;;18.00;99.90;;;;;;5063019;28;20041;-64
2023/08/26 09:27:26;;;;;;;22.30;13.20;;;18.10;99.90;;;;;;5098741;28;20082;-64
2023/08/26 09:29:53;;;;;;;19.00;13.20;;;18.10;99.90;;;;;;5054444;28;20037;-64
2023/08/26 09:32:31;;;;;;;18.02;12.50;;;18.10;99.90;;;;;;5044704;28;20547;-64
2023/08/26 09:35:15;;;;;;;15.35;11.32;;;18.10;99.90;;;;;;5046813;28;20045;-62
2023/08/26 09:37:42;;;;;;;17.92;11.25;;;18.10;99.90;;;;;;5046404;28;20049;-64
2023/08/26 09:40:12;;;;;;;16.42;10.85;;;18.10;99.90;;;;;;5035308;28;20051;-66
2023/08/26 09:42:39;;;;;;;18.25;12.70;;;18.10;99.90;;;;;;5053502;28;20415;-65
2023/08/26 09:45:10;;;;;;;15.82;11.52;;;18.20;99.90;;;;;;5056865;28;20045;-63
2023/08/26 09:47:37;;;;;;;15.98;10.07;;;18.30;99.90;;;;;;5056764;28;20131;-67
2023/08/26 09:50:04;;;;;;;17.77;10.88;;;18.40;99.90;;;;;;5084360;28;20043;-64
2023/08/26 09:52:43;;;;;;;19.38;11.68;;;18.50;99.90;;;;;;5064136;28;20102;-64
2023/08/26 09:55:10;;;;;;;16.30;9.45;;;18.50;99.90;;;;;;5056721;28;20743;-66
2023/08/26 09:57:35;;;;;;;16.60;13.20;;;18.40;99.90;;;;;;5028762;28;20040;-64
2023/08/26 10:00:01;;;;;;;26.40;15.85;;;18.30;99.90;;;;;;5013742;28;20057;-65
2023/08/26 10:02:32;;;;;;;24.88;13.13;;;18.30;99.90;;;;;;5030227;28;20049;-66
2023/08/26 10:05:02;;;;;;;15.68;9.88;;;18.50;99.90;;;;;;5030295;28;20048;-65
2023/08/26 10:07:30;;;;;;;20.83;10.88;;;18.60;99.90;;;;;;5030390;28;20037;-66
2023/08/26 10:10:21;;;;;;;19.98;11.10;;;18.80;99.90;;;;;;5029995;28;20157;-66
2023/08/26 10:12:52;;;;;;;43.83;19.67;;;18.90;99.90;;;;;;5032024;28;20049;-63
2023/08/26 10:15:19;;;;;;;16.60;10.10;;;19.10;99.90;;;;;;5035812;28;20178;-66
2023/08/26 10:17:47;;;;;;;15.27;8.45;;;19.20;99.90;;;;;;5048300;28;20032;-65
2023/08/26 10:20:14;;;;;;;15.35;9.25;;;19.10;99.90;;;;;;5053159;28;20111;-63
2023/08/26 10:22:40;;;;;;;17.83;7.85;;;19.10;99.90;;;;;;5052628;28;20036;-62
2023/08/26 10:25:08;;;;;;;14.18;7.65;;;19.00;99.90;;;;;;5043320;28;20492;-64
2023/08/26 10:27:35;;;;;;;16.75;7.82;;;18.90;99.90;;;;;;5041379;28;20101;-63
2023/08/26 10:30:03;;;;;;;13.20;7.43;;;18.80;99.90;;;;;;5033820;28;20048;-65
2023/08/26 10:32:28;;;;;;;17.88;8.45;;;18.70;99.90;;;;;;5031731;28;20052;-64
2023/08/26 10:34:56;;;;;;;13.85;7.00;;;18.80;99.90;;;;;;5017563;28;20664;-65
2023/08/26 10:37:26;;;;;;;16.33;7.38;;;18.80;99.90;;;;;;5032195;28;20155;-62
2023/08/26 10:39:53;;;;;;;18.77;11.50;;;18.90;99.90;;;;;;5032239;28;20099;-68
2023/08/26 10:42:19;;;;;;;15.73;9.25;;;18.90;99.90;;;;;;5032331;28;20045;-64
2023/08/26 10:44:56;;;;;;;13.00;6.05;;;18.80;99.90;;;;;;5015071;28;20037;-64
2023/08/26 10:47:38;;;;;;;7.93;1.95;;;18.80;99.90;;;;;;5012744;28;21394;-66
2023/08/26 10:50:20;;;;;;;9.80;2.15;;;18.50;99.90;;;;;;5015719;28;20045;-66
2023/08/26 10:52:54;;;;;;;7.47;2.20;;;18.10;99.90;;;;;;5032865;28;20482;-66
2023/08/26 10:55:32;;;;;;;12.65;2.38;;;17.70;99.90;;;;;;5031047;28;20056;-67
2023/08/26 10:58:08;;;;;;;9.45;2.58;;;17.20;99.90;;;;;;5046498;28;20044;-68
2023/08/26 11:00:35;;;;;;;10.80;2.80;;;16.80;99.90;;;;;;5043444;28;20037;-64
2023/08/26 11:03:03;;;;;;;6.20;2.10;;;16.60;99.90;;;;;;5023984;28;20127;-63
2023/08/26 11:05:30;;;;;;;7.28;2.50;;;16.40;99.90;;;;;;5057061;28;20119;-65
2023/08/26 11:07:56;;;;;;;5.60;2.20;;;16.40;99.90;;;;;;5067323;28;20415;-64
2023/08/26 11:10:35;;;;;;;5.93;2.10;;;16.30;99.90;;;;;;5067064;28;20051;-61
2023/08/26 11:13:03;;;;;;;9.70;2.90;;;16.20;99.90;;;;;;5048945;28;20511;-65
2023/08/26 11:15:36;;;;;;;7.25;3.08;;;16.10;99.90;;;;;;5067429;28;20497;-65
2023/08/26 11:18:04;;;;;;;8.75;3.03;;;16.00;99.90;;;;;;5067285;28;20193;-64
2023/08/26 11:20:30;;;;;;;6.90;2.90;;;16.00;99.90;;;;;;5051035;28;20052;-62
2023/08/26 11:22:56;;;;;;;8.38;3.20;;;16.10;99.90;;;;;;5047569;28;20060;-64
2023/08/26 11:25:22;;;;;;;8.18;3.28;;;16.30;99.90;;;;;;5046949;28;20036;-64
2023/08/26 11:27:48;;;;;;;8.35;3.40;;;16.60;99.90;;;;;;5047271;28;20162;-63
2023/08/26 11:30:14;;;;;;;7.93;3.53;;;16.80;99.90;;;;;;5047133;28;20028;-66
2023/08/26 11:32:40;;;;;;;7.85;3.50;;;16.90;99.90;;;;;;5050580;28;20559;-66
2023/08/26 11:35:08;;;;;;;8.23;3.72;;;16.90;99.90;;;;;;5054189;28;20052;-65
2023/08/26 11:37:44;;;;;;;8.82;3.25;;;16.90;99.90;;;;;;5046858;28;20049;-68
2023/08/26 11:40:11;;;;;;;11.77;4.00;;;16.90;99.90;;;;;;5066975;28;20071;-68
2023/08/26 11:42:37;;;;;;;6.60;3.63;;;17.00;99.90;;;;;;5066923;28;20429;-67
2023/08/26 11:45:07;;;;;;;9.07;4.13;;;17.00;99.90;;;;;;5046065;28;20391;-70
2023/08/26 11:47:33;;;;;;;8.27;4.38;;;16.90;99.90;;;;;;5049254;28;20040;-68
2023/08/26 11:49:58;;;;;;;7.65;4.20;;;16.90;99.90;;;;;;5064698;28;20041;-67
2023/08/26 11:52:33;;;;;;;11.05;5.10;;;16.90;99.90;;;;;;5029463;28;20244;-64
2023/08/26 11:55:00;;;;;;;8.68;4.50;;;16.90;99.90;;;;;;5046729;28;20419;-66
2023/08/26 11:57:26;;;;;;;8.10;4.15;;;16.90;99.90;;;;;;5030050;28;20500;-69
2023/08/26 11:59:51;;;;;;;11.60;5.20;;;16.90;99.90;;;;;;5048220;28;20045;-68
2023/08/26 12:02:20;;;;;;;8.88;5.00;;;16.90;99.90;;;;;;5046534;28;20515;-67
2023/08/26 12:04:45;;;;;;;11.05;4.80;;;16.90;99.90;;;;;;5064079;28;20052;-67
2023/08/26 12:07:11;;;;;;;8.68;4.88;;;16.90;99.90;;;;;;5066338;28;20078;-68
2023/08/26 12:09:37;;;;;;;13.02;5.35;;;16.90;99.90;;;;;;5066027;28;20367;-65
2023/08/26 12:12:04;;;;;;;13.80;6.43;;;16.90;99.90;;;;;;5058408;28;20051;-68
2023/08/26 12:14:31;;;;;;;13.15;6.93;;;16.80;99.90;;;;;;5045069;28;20041;-65
2023/08/26 12:17:06;;;;;;;13.48;7.40;;;16.80;99.90;;;;;;5028679;28;20250;-67
2023/08/26 12:19:31;;;;;;;13.85;6.90;;;16.90;99.90;;;;;;5051590;28;20154;-66
2023/08/26 12:22:01;;;;;;;16.33;7.55;;;16.90;99.90;;;;;;5067289;28;20123;-66
2023/08/26 12:24:27;;;;;;;11.75;7.30;;;16.90;99.90;;;;;;5047436;28;20032;-66
2023/08/26 12:26:53;;;;;;;12.40;7.18;;;17.00;99.90;;;;;;5065851;28;20048;-67
2023/08/26 12:29:19;;;;;;;12.15;6.60;;;17.00;99.90;;;;;;5049341;28;20044;-66
2023/08/26 12:31:47;;;;;;;13.40;7.57;;;17.00;99.90;;;;;;5063781;28;20046;-66